Pct Moose — CGCZ — position and weather

sailwx.info

Track history (hours):
 
Tides and Currents Weather Stations Pressure Air Temp Water Temp Dewpoint Dewpoint Depression Visibility Wind Speed Wind Dir Waves Ship Positions

Pct Moose

Last reported at 2015-Mar-29 05:26 UTC. Time now 2015-Mar-29 06:13 UTC.
Position N 48°26' W 123°26'.

; draft 2.8 m.

Type: Military. MMSI: 316013412.

Date/timePositionNaut miles runAvg speedWind from/ knotsBaromVisibWave heightAir tempDewpointWater temp
2015-Mar-29 05:26N 48°26' W 123°26'0 0.0
2015-Mar-29 04:26N 48°26' W 123°26'0 0.0
2015-Mar-29 03:31N 48°26' W 123°26'0 0.0
2015-Mar-29 02:19N 48°26' W 123°26'0 0.0
2015-Mar-29 00:26N 48°26' W 123°26'0 0.0
2015-Mar-28 23:32N 48°26' W 123°26'0 0.0
2015-Mar-28 22:14N 48°26' W 123°26'1 0.9
2015-Mar-28 21:33N 48°26' W 123°27'3 3.5
2015-Mar-28 20:33N 48°23' W 123°25'1312.7
2015-Mar-28 19:33N 48°33' W 123°13'1615.8
2015-Mar-28 18:33N 48°47' W 123°21'8 7.9
2015-Mar-28 17:31N 48°55' W 123°27'2 1.7
2015-Mar-28 16:33N 48°53' W 123°27'3 2.9
2015-Mar-28 15:33N 48°50' W 123°27'2 2.0
2015-Mar-28 14:33N 48°51' W 123°30'0 0.0
2015-Mar-28 13:33N 48°51' W 123°30'0 0.0
2015-Mar-28 12:30N 48°51' W 123°30'0 0.0
2015-Mar-28 11:27N 48°51' W 123°30'0 0.0
2015-Mar-28 10:17N 48°51' W 123°30'0 0.0
2015-Mar-28 09:24N 48°51' W 123°30'0 0.0
2015-Mar-28 08:18N 48°51' W 123°30'0 0.0
2015-Mar-28 07:12N 48°51' W 123°30'0 0.0
2015-Mar-28 06:32N 48°51' W 123°30'0 0.0
2015-Mar-28 05:31N 48°51' W 123°30'0 0.0
2015-Mar-28 04:31N 48°51' W 123°30'0 0.0
2015-Mar-28 03:07N 48°51' W 123°30'0 0.0
2015-Mar-28 02:21N 48°51' W 123°30'0 0.0
2015-Mar-28 01:30N 48°51' W 123°30'0 0.0
2015-Mar-28 00:30N 48°51' W 123°30'7 7.0
2015-Mar-27 23:26N 48°46' W 123°22'8 8.3
2015-Mar-27 22:30N 48°39' W 123°27'1 1.1
2015-Mar-27 21:29N 48°40' W 123°29'6 6.3
2015-Mar-27 20:32N 48°45' W 123°34'9 9.5
2015-Mar-27 19:32N 48°54' W 123°36'6 5.3
2015-Mar-27 18:27N 48°54' W 123°28'7 7.0
2015-Mar-27 17:31N 48°50' W 123°20'6 5.7
2015-Mar-27 16:33N 48°46' W 123°13'3 2.8
2015-Mar-27 15:33N 48°44' W 123°12'2 1.5
2015-Mar-27 14:28N 48°45' W 123°14'0 0.0
2015-Mar-27 13:31N 48°45' W 123°14'0 0.0
2015-Mar-27 12:31N 48°45' W 123°14'0 0.0
2015-Mar-27 11:09N 48°45' W 123°14'0 0.0
2015-Mar-27 10:18N 48°45' W 123°14'0 0.0
2015-Mar-27 09:33N 48°45' W 123°14'0 0.0
2015-Mar-27 08:29N 48°45' W 123°14'0 0.0
2015-Mar-27 07:23N 48°45' W 123°14'0 0.0
2015-Mar-27 06:31N 48°45' W 123°14'0 0.0
2015-Mar-27 05:25N 48°45' W 123°14'0 0.0
2015-Mar-27 04:28N 48°45' W 123°14'0 0.0
2015-Mar-27 03:22N 48°45' W 123°14'0 0.0
2015-Mar-27 02:30N 48°45' W 123°14'0 0.0
2015-Mar-27 01:27N 48°45' W 123°14'0 0.0
2015-Mar-27 00:27N 48°45' W 123°14'0 0.0
2015-Mar-26 23:25N 48°45' W 123°14'0 0.3
2015-Mar-26 22:31N 48°45' W 123°14'2 2.1
2015-Mar-26 21:33N 48°47' W 123°13'2 2.2
2015-Mar-26 20:33N 48°49' W 123°14'9 8.4
2015-Mar-26 19:30N 48°53' W 123°26'9 8.3
2015-Mar-26 18:24N 48°59' W 123°36'7 7.6
2015-Mar-26 17:29N 49°05' W 123°42'2 1.9
2015-Mar-26 16:33N 49°04' W 123°44'7 6.7
2015-Mar-26 15:33N 48°58' W 123°43'2 2.0
2015-Mar-26 14:30N 48°56' W 123°43'0 0.0
2015-Mar-26 13:12N 48°56' W 123°43'0 0.0
2015-Mar-26 12:29N 48°56' W 123°43'0 0.0
2015-Mar-26 11:21N 48°55' W 123°43'0 0.0
2015-Mar-26 10:27N 48°56' W 123°43'0 0.0
2015-Mar-26 09:21N 48°56' W 123°43'0 0.0
2015-Mar-26 08:27N 48°56' W 123°43'0 0.0
2015-Mar-26 07:15N 48°56' W 123°43'0 0.0
2015-Mar-26 06:33N 48°56' W 123°43'0 0.0
2015-Mar-26 01:06N 48°56' W 123°43'0 0.0
2015-Mar-26 00:22N 48°56' W 123°43'3 4.1
2015-Mar-25 23:33N 48°55' W 123°38'7 6.8
2015-Mar-25 22:34N 49°01' W 123°35'1515.2
2015-Mar-25 21:33N 49°13' W 123°49'1313.1
2015-Mar-25 20:33N 49°16' W 124°09'0 0.0
2015-Mar-25 19:33N 49°16' W 124°09'7 6.7
2015-Mar-25 18:33N 49°17' W 123°59'1919.1
2015-Mar-25 17:34N 49°20' W 123°30'7 7.3
2015-Mar-25 16:33N 49°26' W 123°24'4 4.4
2015-Mar-25 15:32N 49°24' W 123°30'0 0.0
2015-Mar-25 12:32N 49°24' W 123°30'0 0.0
2015-Mar-25 07:28N 49°24' W 123°30'0 0.0
2015-Mar-25 06:29N 49°24' W 123°30'0 0.0
2015-Mar-25 05:17N 49°24' W 123°30'0 0.0
2015-Mar-25 04:05N 49°24' W 123°30'0 0.0
2015-Mar-25 02:16N 49°24' W 123°30'0 0.0
2015-Mar-25 01:28N 49°24' W 123°30'0 0.0
2015-Mar-25 00:12N 49°24' W 123°30'0 0.0
2015-Mar-24 23:11N 49°24' W 123°30'2 2.6
2015-Mar-24 22:32N 49°25' W 123°28'9 3.0
2015-Mar-24 19:33N 49°30' W 123°17'4 3.1
2015-Mar-24 18:08N 49°27' W 123°22'1 2.3
2015-Mar-24 17:33N 49°26' W 123°24'1110.6
2015-Mar-24 16:33N 49°20' W 123°36'1514.3
2015-Mar-24 15:32N 49°11' W 123°54'1 1.4
2015-Mar-24 14:31N 49°10' W 123°56'0 0.0
2015-Mar-24 13:31N 49°10' W 123°56'0 0.0
2015-Mar-24 12:32N 49°10' W 123°56'0 0.0
2015-Mar-24 11:16N 49°10' W 123°56'0 0.0
2015-Mar-24 10:30N 49°10' W 123°56'0 0.0
2015-Mar-24 09:18N 49°10' W 123°56'0 0.0
2015-Mar-24 08:30N 49°10' W 123°56'0 0.0
2015-Mar-24 07:11N 49°10' W 123°56'0 0.0
2015-Mar-24 06:23N 49°10' W 123°56'0 0.0
2015-Mar-24 05:10N 49°10' W 123°56'0 0.0
2015-Mar-24 04:13N 49°10' W 123°56'0 0.0
2015-Mar-24 03:33N 49°10' W 123°56'0 0.0
2015-Mar-24 01:27N 49°10' W 123°56'0 0.0
2015-Mar-24 00:33N 49°10' W 123°56'0 0.0
2015-Mar-23 23:33N 49°10' W 123°56'8 7.6
2015-Mar-23 22:34N 49°12' W 123°45'1513.9
2015-Mar-23 21:28N 48°58' W 123°37'7 7.3
2015-Mar-23 20:32N 48°51' W 123°35'5 5.3
2015-Mar-23 19:33N 48°46' W 123°34'6 5.9
2015-Mar-23 18:31N 48°41' W 123°30'0 0.3
2015-Mar-23 17:32N 48°41' W 123°30'6 6.2
2015-Mar-23 16:31N 48°45' W 123°23'8 0.6
2015-Mar-23 03:14N 48°51' W 123°30'0 0.0
2015-Mar-22 23:20N 48°51' W 123°30'4 4.7
2015-Mar-22 22:33N 48°49' W 123°25'1313.3
2015-Mar-22 21:33N 48°38' W 123°14'8 7.8
2015-Mar-22 20:34N 48°30' W 123°16'3 3.3
2015-Mar-22 19:33N 48°33' W 123°17'6 6.5
2015-Mar-22 18:33N 48°39' W 123°22'5 5.2
2015-Mar-22 17:32N 48°42' W 123°29'3 2.7
2015-Mar-22 16:24N 48°39' W 123°27'0 0.0
2015-Mar-22 15:18N 48°39' W 123°27'0 0.0
2015-Mar-22 14:27N 48°39' W 123°27'0 0.0
2015-Mar-22 13:33N 48°39' W 123°27'0 0.0
2015-Mar-22 12:33N 48°39' W 123°27'0 0.0
2015-Mar-22 11:31N 48°39' W 123°27'0 0.0
2015-Mar-22 10:32N 48°39' W 123°27'0 0.0
2015-Mar-22 09:34N 48°39' W 123°27'0 0.0
2015-Mar-22 08:34N 48°39' W 123°27'0 0.0
2015-Mar-22 07:33N 48°39' W 123°27'0 0.0
2015-Mar-22 06:33N 48°39' W 123°27'0 0.0
2015-Mar-22 05:32N 48°39' W 123°27'0 0.0
2015-Mar-22 04:33N 48°39' W 123°27'0 0.0
2015-Mar-22 03:26N 48°39' W 123°27'0 0.0
2015-Mar-22 02:33N 48°39' W 123°27'0 0.0
2015-Mar-22 01:33N 48°39' W 123°27'0 0.0
2015-Mar-22 00:32N 48°39' W 123°27'0 0.0
2015-Mar-21 23:33N 48°39' W 123°27'0 0.0
2015-Mar-21 22:33N 48°39' W 123°27'0 0.0
2015-Mar-21 21:33N 48°39' W 123°27'0 0.0
2015-Mar-21 20:33N 48°39' W 123°27'0 0.0
2015-Mar-21 19:33N 48°39' W 123°27'0 0.0
2015-Mar-21 18:33N 48°39' W 123°27'0 0.0
2015-Mar-21 17:32N 48°39' W 123°27'0 0.0
2015-Mar-21 16:32N 48°39' W 123°27'0 0.0
2015-Mar-21 15:30N 48°39' W 123°27'0 0.0
2015-Mar-21 14:31N 48°39' W 123°27'0 0.0
2015-Mar-21 13:33N 48°39' W 123°27'0 0.0
2015-Mar-21 12:33N 48°39' W 123°27'0 0.0
2015-Mar-21 11:33N 48°39' W 123°27'0 0.0
2015-Mar-21 10:33N 48°39' W 123°27'0 0.0
2015-Mar-21 09:33N 48°39' W 123°27'0 0.0
2015-Mar-21 08:33N 48°39' W 123°27'0 0.0
2015-Mar-21 07:32N 48°39' W 123°27'0 0.0
2015-Mar-21 06:33N 48°39' W 123°27'0 0.0
2015-Mar-21 05:33N 48°39' W 123°27'0 0.0
2015-Mar-21 04:32N 48°39' W 123°27'0 0.0
2015-Mar-21 03:33N 48°39' W 123°27'0 0.0
2015-Mar-21 02:33N 48°39' W 123°27'0 0.0
2015-Mar-21 01:33N 48°39' W 123°27'0 0.0
2015-Mar-21 00:33N 48°39' W 123°27'0 0.0
2015-Mar-20 23:32N 48°39' W 123°27'2 2.3
2015-Mar-20 22:32N 48°39' W 123°30'7 6.7
2015-Mar-20 21:31N 48°44' W 123°24'8 8.7
2015-Mar-20 20:33N 48°52' W 123°19'1312.9
2015-Mar-20 19:33N 49°04' W 123°24'1616.3
2015-Mar-20 18:33N 49°19' W 123°15'5 5.4
2015-Mar-20 17:34N 49°18' W 123°07'0 0.1
2015-Mar-20 16:33N 49°18' W 123°07'10 9.8
2015-Mar-20 15:33N 49°19' W 123°22'7 7.0
2015-Mar-20 14:30N 49°24' W 123°30'0 0.0
2015-Mar-20 13:18N 49°24' W 123°30'0 0.0
2015-Mar-20 12:27N 49°24' W 123°30'0 0.0
2015-Mar-20 11:08N 49°24' W 123°30'0 0.0
2015-Mar-20 06:04N 49°24' W 123°30'0 0.0
2015-Mar-20 05:29N 49°24' W 123°30'0 0.0
2015-Mar-20 04:31N 49°24' W 123°30'0 0.0
2015-Mar-20 03:33N 49°24' W 123°30'0 0.0
2015-Mar-20 02:33N 49°24' W 123°30'0 0.0
2015-Mar-20 01:32N 49°24' W 123°30'0 0.0
2015-Mar-20 00:32N 49°24' W 123°30'1 1.2
2015-Mar-19 23:22N 49°25' W 123°28'5 4.5
2015-Mar-19 22:23N 49°27' W 123°22'6 6.7
2015-Mar-19 21:29N 49°23' W 123°28'1616.7
2015-Mar-19 20:34N 49°15' W 123°49'1312.7
2015-Mar-19 19:33N 49°16' W 124°09'0 0.4
2015-Mar-19 18:33N 49°16' W 124°09'0 0.0
2015-Mar-19 17:33N 49°16' W 124°09'1 1.0
2015-Mar-19 16:33N 49°16' W 124°08'10 9.7
2015-Mar-19 15:33N 49°11' W 123°54'2 1.6
2015-Mar-19 14:31N 49°10' W 123°56'0 0.0
2015-Mar-19 13:31N 49°10' W 123°56'0 0.0
2015-Mar-19 12:33N 49°10' W 123°56'0 0.0
2015-Mar-19 11:33N 49°10' W 123°56'0 0.0
2015-Mar-19 10:34N 49°10' W 123°56'0 0.0
2015-Mar-19 09:33N 49°10' W 123°56'0 0.0
2015-Mar-19 08:33N 49°10' W 123°56'0 0.0
2015-Mar-19 07:34N 49°10' W 123°56'0 0.0
2015-Mar-19 06:34N 49°10' W 123°56'0 0.0
2015-Mar-19 05:33N 49°10' W 123°56'  
Track history (hours):
 
Tides and Currents Weather Stations Pressure Air Temp Water Temp Dewpoint Dewpoint Depression Visibility Wind Speed Wind Dir Waves Ship Positions

Pct Moose

Last reported at 2015-Mar-29 05:26 UTC. Time now 2015-Mar-29 06:13 UTC.
Position N 48°26' W 123°26'.

; draft 2.8 m.

Type: Military. MMSI: 316013412.

Date/timePositionNaut miles runAvg speedWind from/ knotsBaromVisibWave heightAir tempDewpointWater temp
2015-Mar-29 05:26N 48°26' W 123°26'0 0.0
2015-Mar-29 04:26N 48°26' W 123°26'0 0.0
2015-Mar-29 03:31N 48°26' W 123°26'0 0.0
2015-Mar-29 02:19N 48°26' W 123°26'0 0.0
2015-Mar-29 00:26N 48°26' W 123°26'0 0.0
2015-Mar-28 23:32N 48°26' W 123°26'0 0.0
2015-Mar-28 22:14N 48°26' W 123°26'1 0.9
2015-Mar-28 21:33N 48°26' W 123°27'3 3.5
2015-Mar-28 20:33N 48°23' W 123°25'1312.7
2015-Mar-28 19:33N 48°33' W 123°13'1615.8
2015-Mar-28 18:33N 48°47' W 123°21'8 7.9
2015-Mar-28 17:31N 48°55' W 123°27'2 1.7
2015-Mar-28 16:33N 48°53' W 123°27'3 2.9
2015-Mar-28 15:33N 48°50' W 123°27'2 2.0
2015-Mar-28 14:33N 48°51' W 123°30'0 0.0
2015-Mar-28 13:33N 48°51' W 123°30'0 0.0
2015-Mar-28 12:30N 48°51' W 123°30'0 0.0
2015-Mar-28 11:27N 48°51' W 123°30'0 0.0
2015-Mar-28 10:17N 48°51' W 123°30'0 0.0
2015-Mar-28 09:24N 48°51' W 123°30'0 0.0
2015-Mar-28 08:18N 48°51' W 123°30'0 0.0
2015-Mar-28 07:12N 48°51' W 123°30'0 0.0
2015-Mar-28 06:32N 48°51' W 123°30'0 0.0
2015-Mar-28 05:31N 48°51' W 123°30'0 0.0
2015-Mar-28 04:31N 48°51' W 123°30'0 0.0
2015-Mar-28 03:07N 48°51' W 123°30'0 0.0
2015-Mar-28 02:21N 48°51' W 123°30'0 0.0
2015-Mar-28 01:30N 48°51' W 123°30'0 0.0
2015-Mar-28 00:30N 48°51' W 123°30'7 7.0
2015-Mar-27 23:26N 48°46' W 123°22'8 8.3
2015-Mar-27 22:30N 48°39' W 123°27'1 1.1
2015-Mar-27 21:29N 48°40' W 123°29'6 6.3
2015-Mar-27 20:32N 48°45' W 123°34'9 9.5
2015-Mar-27 19:32N 48°54' W 123°36'6 5.3
2015-Mar-27 18:27N 48°54' W 123°28'7 7.0
2015-Mar-27 17:31N 48°50' W 123°20'6 5.7
2015-Mar-27 16:33N 48°46' W 123°13'3 2.8
2015-Mar-27 15:33N 48°44' W 123°12'2 1.5
2015-Mar-27 14:28N 48°45' W 123°14'0 0.0
2015-Mar-27 13:31N 48°45' W 123°14'0 0.0
2015-Mar-27 12:31N 48°45' W 123°14'0 0.0
2015-Mar-27 11:09N 48°45' W 123°14'0 0.0
2015-Mar-27 10:18N 48°45' W 123°14'0 0.0
2015-Mar-27 09:33N 48°45' W 123°14'0 0.0
2015-Mar-27 08:29N 48°45' W 123°14'0 0.0
2015-Mar-27 07:23N 48°45' W 123°14'0 0.0
2015-Mar-27 06:31N 48°45' W 123°14'0 0.0
2015-Mar-27 05:25N 48°45' W 123°14'0 0.0
2015-Mar-27 04:28N 48°45' W 123°14'0 0.0
2015-Mar-27 03:22N 48°45' W 123°14'0 0.0
2015-Mar-27 02:30N 48°45' W 123°14'0 0.0
2015-Mar-27 01:27N 48°45' W 123°14'0 0.0
2015-Mar-27 00:27N 48°45' W 123°14'0 0.0
2015-Mar-26 23:25N 48°45' W 123°14'0 0.3
2015-Mar-26 22:31N 48°45' W 123°14'2 2.1
2015-Mar-26 21:33N 48°47' W 123°13'2 2.2
2015-Mar-26 20:33N 48°49' W 123°14'9 8.4
2015-Mar-26 19:30N 48°53' W 123°26'9 8.3
2015-Mar-26 18:24N 48°59' W 123°36'7 7.6
2015-Mar-26 17:29N 49°05' W 123°42'2 1.9
2015-Mar-26 16:33N 49°04' W 123°44'7 6.7
2015-Mar-26 15:33N 48°58' W 123°43'2 2.0
2015-Mar-26 14:30N 48°56' W 123°43'0 0.0
2015-Mar-26 13:12N 48°56' W 123°43'0 0.0
2015-Mar-26 12:29N 48°56' W 123°43'0 0.0
2015-Mar-26 11:21N 48°55' W 123°43'0 0.0
2015-Mar-26 10:27N 48°56' W 123°43'0 0.0
2015-Mar-26 09:21N 48°56' W 123°43'0 0.0
2015-Mar-26 08:27N 48°56' W 123°43'0 0.0
2015-Mar-26 07:15N 48°56' W 123°43'0 0.0
2015-Mar-26 06:33N 48°56' W 123°43'0 0.0
2015-Mar-26 01:06N 48°56' W 123°43'0 0.0
2015-Mar-26 00:22N 48°56' W 123°43'3 4.1
2015-Mar-25 23:33N 48°55' W 123°38'7 6.8
2015-Mar-25 22:34N 49°01' W 123°35'1515.2
2015-Mar-25 21:33N 49°13' W 123°49'1313.1
2015-Mar-25 20:33N 49°16' W 124°09'0 0.0
2015-Mar-25 19:33N 49°16' W 124°09'7 6.7
2015-Mar-25 18:33N 49°17' W 123°59'1919.1
2015-Mar-25 17:34N 49°20' W 123°30'7 7.3
2015-Mar-25 16:33N 49°26' W 123°24'4 4.4
2015-Mar-25 15:32N 49°24' W 123°30'0 0.0
2015-Mar-25 12:32N 49°24' W 123°30'0 0.0
2015-Mar-25 07:28N 49°24' W 123°30'0 0.0
2015-Mar-25 06:29N 49°24' W 123°30'0 0.0
2015-Mar-25 05:17N 49°24' W 123°30'0 0.0
2015-Mar-25 04:05N 49°24' W 123°30'0 0.0
2015-Mar-25 02:16N 49°24' W 123°30'0 0.0
2015-Mar-25 01:28N 49°24' W 123°30'0 0.0
2015-Mar-25 00:12N 49°24' W 123°30'0 0.0
2015-Mar-24 23:11N 49°24' W 123°30'2 2.6
2015-Mar-24 22:32N 49°25' W 123°28'9 3.0
2015-Mar-24 19:33N 49°30' W 123°17'4 3.1
2015-Mar-24 18:08N 49°27' W 123°22'1 2.3
2015-Mar-24 17:33N 49°26' W 123°24'1110.6
2015-Mar-24 16:33N 49°20' W 123°36'1514.3
2015-Mar-24 15:32N 49°11' W 123°54'1 1.4
2015-Mar-24 14:31N 49°10' W 123°56'0 0.0
2015-Mar-24 13:31N 49°10' W 123°56'0 0.0
2015-Mar-24 12:32N 49°10' W 123°56'0 0.0
2015-Mar-24 11:16N 49°10' W 123°56'0 0.0
2015-Mar-24 10:30N 49°10' W 123°56'0 0.0
2015-Mar-24 09:18N 49°10' W 123°56'0 0.0
2015-Mar-24 08:30N 49°10' W 123°56'0 0.0
2015-Mar-24 07:11N 49°10' W 123°56'0 0.0
2015-Mar-24 06:23N 49°10' W 123°56'0 0.0
2015-Mar-24 05:10N 49°10' W 123°56'0 0.0
2015-Mar-24 04:13N 49°10' W 123°56'0 0.0
2015-Mar-24 03:33N 49°10' W 123°56'0 0.0
2015-Mar-24 01:27N 49°10' W 123°56'0 0.0
2015-Mar-24 00:33N 49°10' W 123°56'0 0.0
2015-Mar-23 23:33N 49°10' W 123°56'8 7.6
2015-Mar-23 22:34N 49°12' W 123°45'1513.9
2015-Mar-23 21:28N 48°58' W 123°37'7 7.3
2015-Mar-23 20:32N 48°51' W 123°35'5 5.3
2015-Mar-23 19:33N 48°46' W 123°34'6 5.9
2015-Mar-23 18:31N 48°41' W 123°30'0 0.3
2015-Mar-23 17:32N 48°41' W 123°30'6 6.2
2015-Mar-23 16:31N 48°45' W 123°23'8 0.6
2015-Mar-23 03:14N 48°51' W 123°30'0 0.0
2015-Mar-22 23:20N 48°51' W 123°30'4 4.7
2015-Mar-22 22:33N 48°49' W 123°25'1313.3
2015-Mar-22 21:33N 48°38' W 123°14'8 7.8
2015-Mar-22 20:34N 48°30' W 123°16'3 3.3
2015-Mar-22 19:33N 48°33' W 123°17'6 6.5
2015-Mar-22 18:33N 48°39' W 123°22'5 5.2
2015-Mar-22 17:32N 48°42' W 123°29'3 2.7
2015-Mar-22 16:24N 48°39' W 123°27'0 0.0
2015-Mar-22 15:18N 48°39' W 123°27'0 0.0
2015-Mar-22 14:27N 48°39' W 123°27'0 0.0
2015-Mar-22 13:33N 48°39' W 123°27'0 0.0
2015-Mar-22 12:33N 48°39' W 123°27'0 0.0
2015-Mar-22 11:31N 48°39' W 123°27'0 0.0
2015-Mar-22 10:32N 48°39' W 123°27'0 0.0
2015-Mar-22 09:34N 48°39' W 123°27'0 0.0
2015-Mar-22 08:34N 48°39' W 123°27'0 0.0
2015-Mar-22 07:33N 48°39' W 123°27'0 0.0
2015-Mar-22 06:33N 48°39' W 123°27'0 0.0
2015-Mar-22 05:32N 48°39' W 123°27'0 0.0
2015-Mar-22 04:33N 48°39' W 123°27'0 0.0
2015-Mar-22 03:26N 48°39' W 123°27'0 0.0
2015-Mar-22 02:33N 48°39' W 123°27'0 0.0
2015-Mar-22 01:33N 48°39' W 123°27'0 0.0
2015-Mar-22 00:32N 48°39' W 123°27'0 0.0
2015-Mar-21 23:33N 48°39' W 123°27'0 0.0
2015-Mar-21 22:33N 48°39' W 123°27'0 0.0
2015-Mar-21 21:33N 48°39' W 123°27'0 0.0
2015-Mar-21 20:33N 48°39' W 123°27'0 0.0
2015-Mar-21 19:33N 48°39' W 123°27'0 0.0
2015-Mar-21 18:33N 48°39' W 123°27'0 0.0
2015-Mar-21 17:32N 48°39' W 123°27'0 0.0
2015-Mar-21 16:32N 48°39' W 123°27'0 0.0
2015-Mar-21 15:30N 48°39' W 123°27'0 0.0
2015-Mar-21 14:31N 48°39' W 123°27'0 0.0
2015-Mar-21 13:33N 48°39' W 123°27'0 0.0
2015-Mar-21 12:33N 48°39' W 123°27'0 0.0
2015-Mar-21 11:33N 48°39' W 123°27'0 0.0
2015-Mar-21 10:33N 48°39' W 123°27'0 0.0
2015-Mar-21 09:33N 48°39' W 123°27'0 0.0
2015-Mar-21 08:33N 48°39' W 123°27'0 0.0
2015-Mar-21 07:32N 48°39' W 123°27'0 0.0
2015-Mar-21 06:33N 48°39' W 123°27'0 0.0
2015-Mar-21 05:33N 48°39' W 123°27'0 0.0
2015-Mar-21 04:32N 48°39' W 123°27'0 0.0
2015-Mar-21 03:33N 48°39' W 123°27'0 0.0
2015-Mar-21 02:33N 48°39' W 123°27'0 0.0
2015-Mar-21 01:33N 48°39' W 123°27'0 0.0
2015-Mar-21 00:33N 48°39' W 123°27'0 0.0
2015-Mar-20 23:32N 48°39' W 123°27'2 2.3
2015-Mar-20 22:32N 48°39' W 123°30'7 6.7
2015-Mar-20 21:31N 48°44' W 123°24'8 8.7
2015-Mar-20 20:33N 48°52' W 123°19'1312.9
2015-Mar-20 19:33N 49°04' W 123°24'1616.3
2015-Mar-20 18:33N 49°19' W 123°15'5 5.4
2015-Mar-20 17:34N 49°18' W 123°07'0 0.1
2015-Mar-20 16:33N 49°18' W 123°07'10 9.8
2015-Mar-20 15:33N 49°19' W 123°22'7 7.0
2015-Mar-20 14:30N 49°24' W 123°30'0 0.0
2015-Mar-20 13:18N 49°24' W 123°30'0 0.0
2015-Mar-20 12:27N 49°24' W 123°30'0 0.0
2015-Mar-20 11:08N 49°24' W 123°30'0 0.0
2015-Mar-20 06:04N 49°24' W 123°30'0 0.0
2015-Mar-20 05:29N 49°24' W 123°30'0 0.0
2015-Mar-20 04:31N 49°24' W 123°30'0 0.0
2015-Mar-20 03:33N 49°24' W 123°30'0 0.0
2015-Mar-20 02:33N 49°24' W 123°30'0 0.0
2015-Mar-20 01:32N 49°24' W 123°30'0 0.0
2015-Mar-20 00:32N 49°24' W 123°30'1 1.2
2015-Mar-19 23:22N 49°25' W 123°28'5 4.5
2015-Mar-19 22:23N 49°27' W 123°22'6 6.7
2015-Mar-19 21:29N 49°23' W 123°28'1616.7
2015-Mar-19 20:34N 49°15' W 123°49'1312.7
2015-Mar-19 19:33N 49°16' W 124°09'0 0.4
2015-Mar-19 18:33N 49°16' W 124°09'0 0.0
2015-Mar-19 17:33N 49°16' W 124°09'1 1.0
2015-Mar-19 16:33N 49°16' W 124°08'10 9.7
2015-Mar-19 15:33N 49°11' W 123°54'2 1.6
2015-Mar-19 14:31N 49°10' W 123°56'0 0.0
2015-Mar-19 13:31N 49°10' W 123°56'0 0.0
2015-Mar-19 12:33N 49°10' W 123°56'0 0.0
2015-Mar-19 11:33N 49°10' W 123°56'0 0.0
2015-Mar-19 10:34N 49°10' W 123°56'0 0.0
2015-Mar-19 09:33N 49°10' W 123°56'0 0.0
2015-Mar-19 08:33N 49°10' W 123°56'0 0.0
2015-Mar-19 07:34N 49°10' W 123°56'0 0.0
2015-Mar-19 06:34N 49°10' W 123°56'0 0.0
2015-Mar-19 05:33N 49°10' W 123°56'  

Dump ship's entire track history